sensor_id;sensor_type;location;lat;lon;timestamp;P1;durP1;ratioP1;P2;durP2;ratioP2
39098;SDS011;24844;52.380;7.018;2023-05-21T00:00:47;5.78;;;3.35;;
39098;SDS011;24844;52.380;7.018;2023-05-21T00:03:14;6.07;;;3.58;;
39098;SDS011;24844;52.380;7.018;2023-05-21T00:05:40;5.15;;;3.58;;
39098;SDS011;24844;52.380;7.018;2023-05-21T00:08:06;5.45;;;3.83;;
39098;SDS011;24844;52.380;7.018;2023-05-21T00:10:31;7.03;;;3.67;;
39098;SDS011;24844;52.380;7.018;2023-05-21T00:12:57;7.68;;;3.08;;
39098;SDS011;24844;52.380;7.018;2023-05-21T00:15:22;4.30;;;3.65;;
39098;SDS011;24844;52.380;7.018;2023-05-21T00:17:48;7.03;;;3.58;;
39098;SDS011;24844;52.380;7.018;2023-05-21T00:20:13;5.50;;;3.47;;
39098;SDS011;24844;52.380;7.018;2023-05-21T00:22:40;7.18;;;3.60;;
39098;SDS011;24844;52.380;7.018;2023-05-21T00:25:09;5.15;;;3.83;;
39098;SDS011;24844;52.380;7.018;2023-05-21T00:27:35;7.20;;;3.80;;
39098;SDS011;24844;52.380;7.018;2023-05-21T00:30:02;4.88;;;3.63;;
39098;SDS011;24844;52.380;7.018;2023-05-21T00:32:28;6.00;;;3.25;;
39098;SDS011;24844;52.380;7.018;2023-05-21T00:34:53;4.82;;;3.50;;
39098;SDS011;24844;52.380;7.018;2023-05-21T00:37:19;7.10;;;3.53;;
39098;SDS011;24844;52.380;7.018;2023-05-21T00:39:45;4.68;;;3.60;;
39098;SDS011;24844;52.380;7.018;2023-05-21T00:42:11;6.05;;;3.15;;
39098;SDS011;24844;52.380;7.018;2023-05-21T00:44:37;7.43;;;3.70;;
39098;SDS011;24844;52.380;7.018;2023-05-21T00:47:03;5.47;;;3.83;;
39098;SDS011;24844;52.380;7.018;2023-05-21T00:49:30;5.53;;;3.70;;
39098;SDS011;24844;52.380;7.018;2023-05-21T00:51:56;6.32;;;3.95;;
39098;SDS011;24844;52.380;7.018;2023-05-21T00:54:25;7.22;;;3.80;;
39098;SDS011;24844;52.380;7.018;2023-05-21T00:56:51;6.45;;;3.88;;
39098;SDS011;24844;52.380;7.018;2023-05-21T00:59:18;9.15;;;4.10;;
39098;SDS011;24844;52.380;7.018;2023-05-21T01:01:44;4.68;;;3.80;;
39098;SDS011;24844;52.380;7.018;2023-05-21T01:04:10;3.95;;;3.40;;
39098;SDS011;24844;52.380;7.018;2023-05-21T01:06:36;6.03;;;3.90;;
39098;SDS011;24844;52.380;7.018;2023-05-21T01:09:02;6.18;;;3.88;;
39098;SDS011;24844;52.380;7.018;2023-05-21T01:11:48;4.97;;;3.40;;
39098;SDS011;24844;52.380;7.018;2023-05-21T01:14:16;6.97;;;4.15;;
39098;SDS011;24844;52.380;7.018;2023-05-21T01:16:43;6.15;;;4.07;;
39098;SDS011;24844;52.380;7.018;2023-05-21T01:19:17;4.90;;;4.03;;
39098;SDS011;24844;52.380;7.018;2023-05-21T01:21:45;5.28;;;4.20;;
39098;SDS011;24844;52.380;7.018;2023-05-21T01:24:16;6.78;;;4.05;;
39098;SDS011;24844;52.380;7.018;2023-05-21T01:26:42;5.65;;;3.83;;
39098;SDS011;24844;52.380;7.018;2023-05-21T01:29:10;4.95;;;4.07;;
39098;SDS011;24844;52.380;7.018;2023-05-21T01:34:14;7.00;;;4.47;;
39098;SDS011;24844;52.380;7.018;2023-05-21T01:36:46;5.78;;;4.20;;
39098;SDS011;24844;52.380;7.018;2023-05-21T01:39:20;5.47;;;3.97;;
39098;SDS011;24844;52.380;7.018;2023-05-21T01:41:51;10.05;;;4.50;;
39098;SDS011;24844;52.380;7.018;2023-05-21T01:44:18;6.73;;;4.27;;
39098;SDS011;24844;52.380;7.018;2023-05-21T01:46:46;7.10;;;3.90;;
39098;SDS011;24844;52.380;7.018;2023-05-21T01:49:11;6.63;;;4.47;;
39098;SDS011;24844;52.380;7.018;2023-05-21T01:51:38;4.85;;;3.97;;
39098;SDS011;24844;52.380;7.018;2023-05-21T01:54:04;5.68;;;4.03;;
39098;SDS011;24844;52.380;7.018;2023-05-21T01:56:30;9.77;;;4.72;;
39098;SDS011;24844;52.380;7.018;2023-05-21T01:58:58;5.00;;;4.10;;
39098;SDS011;24844;52.380;7.018;2023-05-21T02:01:24;7.60;;;4.85;;
39098;SDS011;24844;52.380;7.018;2023-05-21T02:03:50;4.82;;;4.13;;
39098;SDS011;24844;52.380;7.018;2023-05-21T02:06:16;6.60;;;4.65;;
39098;SDS011;24844;52.380;7.018;2023-05-21T02:08:41;6.13;;;4.65;;
39098;SDS011;24844;52.380;7.018;2023-05-21T02:11:09;7.00;;;5.10;;
39098;SDS011;24844;52.380;7.018;2023-05-21T02:13:35;8.15;;;5.10;;
39098;SDS011;24844;52.380;7.018;2023-05-21T02:16:05;4.82;;;4.28;;
39098;SDS011;24844;52.380;7.018;2023-05-21T02:18:35;6.72;;;5.20;;
39098;SDS011;24844;52.380;7.018;2023-05-21T02:21:06;6.97;;;5.38;;
39098;SDS011;24844;52.380;7.018;2023-05-21T02:23:31;7.05;;;5.22;;
39098;SDS011;24844;52.380;7.018;2023-05-21T02:25:57;8.13;;;5.10;;
39098;SDS011;24844;52.380;7.018;2023-05-21T02:28:22;5.93;;;5.00;;
39098;SDS011;24844;52.380;7.018;2023-05-21T02:30:48;7.82;;;5.40;;
39098;SDS011;24844;52.380;7.018;2023-05-21T02:33:14;7.90;;;4.97;;
39098;SDS011;24844;52.380;7.018;2023-05-21T02:35:40;8.13;;;5.05;;
39098;SDS011;24844;52.380;7.018;2023-05-21T02:38:06;10.10;;;5.65;;
39098;SDS011;24844;52.380;7.018;2023-05-21T02:40:33;5.72;;;5.13;;
39098;SDS011;24844;52.380;7.018;2023-05-21T02:42:58;9.20;;;6.28;;
39098;SDS011;24844;52.380;7.018;2023-05-21T02:45:24;7.68;;;5.75;;
39098;SDS011;24844;52.380;7.018;2023-05-21T02:47:50;6.93;;;5.60;;
39098;SDS011;24844;52.380;7.018;2023-05-21T02:50:15;9.73;;;6.53;;
39098;SDS011;24844;52.380;7.018;2023-05-21T02:52:41;6.05;;;5.30;;
39098;SDS011;24844;52.380;7.018;2023-05-21T02:55:07;8.55;;;6.35;;
39098;SDS011;24844;52.380;7.018;2023-05-21T02:57:33;11.57;;;5.57;;
39098;SDS011;24844;52.380;7.018;2023-05-21T02:59:58;6.70;;;5.63;;
39098;SDS011;24844;52.380;7.018;2023-05-21T03:02:24;8.38;;;5.68;;
39098;SDS011;24844;52.380;7.018;2023-05-21T03:04:50;10.20;;;5.90;;
39098;SDS011;24844;52.380;7.018;2023-05-21T03:07:15;7.82;;;5.82;;
39098;SDS011;24844;52.380;7.018;2023-05-21T03:09:43;10.07;;;5.75;;
39098;SDS011;24844;52.380;7.018;2023-05-21T03:12:09;7.35;;;6.03;;
39098;SDS011;24844;52.380;7.018;2023-05-21T03:14:35;7.43;;;5.30;;
39098;SDS011;24844;52.380;7.018;2023-05-21T03:17:01;8.00;;;6.40;;
39098;SDS011;24844;52.380;7.018;2023-05-21T03:19:29;7.72;;;5.55;;
39098;SDS011;24844;52.380;7.018;2023-05-21T03:24:24;8.27;;;5.72;;
39098;SDS011;24844;52.380;7.018;2023-05-21T03:26:50;7.60;;;6.05;;
39098;SDS011;24844;52.380;7.018;2023-05-21T03:29:16;10.40;;;6.40;;
39098;SDS011;24844;52.380;7.018;2023-05-21T03:31:41;9.40;;;6.72;;
39098;SDS011;24844;52.380;7.018;2023-05-21T03:34:07;9.18;;;6.40;;
39098;SDS011;24844;52.380;7.018;2023-05-21T03:36:33;8.25;;;6.22;;
39098;SDS011;24844;52.380;7.018;2023-05-21T03:38:58;9.20;;;6.30;;
39098;SDS011;24844;52.380;7.018;2023-05-21T03:41:24;7.60;;;5.72;;
39098;SDS011;24844;52.380;7.018;2023-05-21T03:43:50;8.38;;;6.05;;
39098;SDS011;24844;52.380;7.018;2023-05-21T03:46:15;8.20;;;6.30;;
39098;SDS011;24844;52.380;7.018;2023-05-21T03:48:41;9.07;;;6.53;;
39098;SDS011;24844;52.380;7.018;2023-05-21T03:51:07;8.70;;;6.03;;
39098;SDS011;24844;52.380;7.018;2023-05-21T03:53:33;11.63;;;6.63;;
39098;SDS011;24844;52.380;7.018;2023-05-21T03:55:59;10.20;;;6.68;;
39098;SDS011;24844;52.380;7.018;2023-05-21T03:58:25;9.63;;;6.57;;
39098;SDS011;24844;52.380;7.018;2023-05-21T04:00:50;8.23;;;7.10;;
39098;SDS011;24844;52.380;7.018;2023-05-21T04:03:16;11.23;;;6.93;;
39098;SDS011;24844;52.380;7.018;2023-05-21T04:05:42;13.18;;;6.97;;
39098;SDS011;24844;52.380;7.018;2023-05-21T04:08:07;9.35;;;7.10;;
39098;SDS011;24844;52.380;7.018;2023-05-21T04:10:33;16.63;;;7.68;;
39098;SDS011;24844;52.380;7.018;2023-05-21T04:12:58;9.13;;;7.40;;
39098;SDS011;24844;52.380;7.018;2023-05-21T04:15:24;12.25;;;7.00;;
39098;SDS011;24844;52.380;7.018;2023-05-21T04:17:51;7.80;;;6.78;;
39098;SDS011;24844;52.380;7.018;2023-05-21T04:20:17;11.32;;;8.02;;
39098;SDS011;24844;52.380;7.018;2023-05-21T04:22:42;10.93;;;8.07;;
39098;SDS011;24844;52.380;7.018;2023-05-21T04:25:08;12.20;;;7.93;;
39098;SDS011;24844;52.380;7.018;2023-05-21T04:27:35;9.27;;;7.22;;
39098;SDS011;24844;52.380;7.018;2023-05-21T04:30:00;11.82;;;8.60;;
39098;SDS011;24844;52.380;7.018;2023-05-21T04:32:28;10.18;;;6.72;;
39098;SDS011;24844;52.380;7.018;2023-05-21T04:34:54;10.82;;;7.93;;
39098;SDS011;24844;52.380;7.018;2023-05-21T04:37:20;11.80;;;7.45;;
39098;SDS011;24844;52.380;7.018;2023-05-21T04:39:48;14.32;;;7.97;;
39098;SDS011;24844;52.380;7.018;2023-05-21T04:42:14;9.10;;;7.32;;
39098;SDS011;24844;52.380;7.018;2023-05-21T04:44:40;10.95;;;7.63;;
39098;SDS011;24844;52.380;7.018;2023-05-21T04:47:08;14.80;;;8.35;;
39098;SDS011;24844;52.380;7.018;2023-05-21T04:49:34;11.15;;;8.25;;
39098;SDS011;24844;52.380;7.018;2023-05-21T04:52:00;12.00;;;7.95;;
39098;SDS011;24844;52.380;7.018;2023-05-21T04:54:26;13.48;;;8.50;;
39098;SDS011;24844;52.380;7.018;2023-05-21T04:56:52;11.57;;;7.38;;
39098;SDS011;24844;52.380;7.018;2023-05-21T04:59:18;9.10;;;7.85;;
39098;SDS011;24844;52.380;7.018;2023-05-21T05:01:45;11.48;;;7.38;;
39098;SDS011;24844;52.380;7.018;2023-05-21T05:04:10;12.25;;;8.00;;
39098;SDS011;24844;52.380;7.018;2023-05-21T05:06:36;15.32;;;8.15;;
39098;SDS011;24844;52.380;7.018;2023-05-21T05:09:01;12.88;;;8.00;;
39098;SDS011;24844;52.380;7.018;2023-05-21T05:11:28;14.40;;;8.63;;
39098;SDS011;24844;52.380;7.018;2023-05-21T05:13:54;10.13;;;7.28;;
39098;SDS011;24844;52.380;7.018;2023-05-21T05:16:19;10.55;;;7.22;;
39098;SDS011;24844;52.380;7.018;2023-05-21T05:18:50;12.13;;;8.05;;
39098;SDS011;24844;52.380;7.018;2023-05-21T05:21:16;11.63;;;6.88;;
39098;SDS011;24844;52.380;7.018;2023-05-21T05:23:42;11.48;;;7.72;;
39098;SDS011;24844;52.380;7.018;2023-05-21T05:26:07;12.38;;;7.75;;
39098;SDS011;24844;52.380;7.018;2023-05-21T05:28:33;13.65;;;8.00;;
39098;SDS011;24844;52.380;7.018;2023-05-21T05:30:58;11.63;;;7.13;;
39098;SDS011;24844;52.380;7.018;2023-05-21T05:33:24;8.20;;;6.88;;
39098;SDS011;24844;52.380;7.018;2023-05-21T05:35:49;11.27;;;7.15;;
39098;SDS011;24844;52.380;7.018;2023-05-21T05:38:15;12.63;;;7.95;;
39098;SDS011;24844;52.380;7.018;2023-05-21T05:40:41;13.82;;;7.82;;
39098;SDS011;24844;52.380;7.018;2023-05-21T05:43:06;11.63;;;7.70;;
39098;SDS011;24844;52.380;7.018;2023-05-21T05:45:32;12.23;;;7.10;;
39098;SDS011;24844;52.380;7.018;2023-05-21T05:47:58;11.80;;;7.50;;
39098;SDS011;24844;52.380;7.018;2023-05-21T05:50:23;15.57;;;7.70;;
39098;SDS011;24844;52.380;7.018;2023-05-21T05:52:49;11.63;;;7.07;;
39098;SDS011;24844;52.380;7.018;2023-05-21T05:55:15;9.43;;;6.75;;
39098;SDS011;24844;52.380;7.018;2023-05-21T05:57:40;10.82;;;6.82;;
39098;SDS011;24844;52.380;7.018;2023-05-21T06:00:06;13.63;;;6.93;;
39098;SDS011;24844;52.380;7.018;2023-05-21T06:02:34;13.50;;;6.82;;
39098;SDS011;24844;52.380;7.018;2023-05-21T06:05:01;11.68;;;6.82;;
39098;SDS011;24844;52.380;7.018;2023-05-21T06:07:27;11.10;;;6.50;;
39098;SDS011;24844;52.380;7.018;2023-05-21T06:09:53;11.70;;;6.95;;
39098;SDS011;24844;52.380;7.018;2023-05-21T06:12:18;12.98;;;6.80;;
39098;SDS011;24844;52.380;7.018;2023-05-21T06:14:44;9.32;;;6.80;;
39098;SDS011;24844;52.380;7.018;2023-05-21T06:17:11;10.57;;;6.80;;
39098;SDS011;24844;52.380;7.018;2023-05-21T06:19:36;9.93;;;6.47;;
39098;SDS011;24844;52.380;7.018;2023-05-21T06:22:02;8.88;;;6.07;;
39098;SDS011;24844;52.380;7.018;2023-05-21T06:24:28;10.50;;;6.10;;
39098;SDS011;24844;52.380;7.018;2023-05-21T06:26:54;8.35;;;6.32;;
39098;SDS011;24844;52.380;7.018;2023-05-21T06:29:20;10.82;;;6.80;;
39098;SDS011;24844;52.380;7.018;2023-05-21T06:31:45;10.95;;;6.78;;
39098;SDS011;24844;52.380;7.018;2023-05-21T06:34:11;11.23;;;7.32;;
39098;SDS011;24844;52.380;7.018;2023-05-21T06:36:37;12.70;;;6.95;;
39098;SDS011;24844;52.380;7.018;2023-05-21T06:39:03;10.65;;;6.75;;
39098;SDS011;24844;52.380;7.018;2023-05-21T06:41:28;10.95;;;6.40;;
39098;SDS011;24844;52.380;7.018;2023-05-21T06:43:54;12.38;;;6.25;;
39098;SDS011;24844;52.380;7.018;2023-05-21T06:46:19;9.70;;;6.22;;
39098;SDS011;24844;52.380;7.018;2023-05-21T06:48:45;12.45;;;6.55;;
39098;SDS011;24844;52.380;7.018;2023-05-21T06:51:11;10.15;;;6.28;;
39098;SDS011;24844;52.380;7.018;2023-05-21T06:53:37;11.48;;;6.65;;
39098;SDS011;24844;52.380;7.018;2023-05-21T06:56:02;11.48;;;6.00;;
39098;SDS011;24844;52.380;7.018;2023-05-21T06:58:28;11.90;;;6.75;;
39098;SDS011;24844;52.380;7.018;2023-05-21T07:00:58;13.90;;;6.60;;
39098;SDS011;24844;52.380;7.018;2023-05-21T07:03:24;11.73;;;6.38;;
39098;SDS011;24844;52.380;7.018;2023-05-21T07:05:51;9.43;;;6.22;;
39098;SDS011;24844;52.380;7.018;2023-05-21T07:08:17;9.80;;;5.90;;
39098;SDS011;24844;52.380;7.018;2023-05-21T07:10:44;10.18;;;6.13;;
39098;SDS011;24844;52.380;7.018;2023-05-21T07:13:10;9.93;;;6.75;;
39098;SDS011;24844;52.380;7.018;2023-05-21T07:15:36;12.32;;;6.68;;
39098;SDS011;24844;52.380;7.018;2023-05-21T07:18:01;9.52;;;5.85;;
39098;SDS011;24844;52.380;7.018;2023-05-21T07:20:27;10.30;;;6.45;;
39098;SDS011;24844;52.380;7.018;2023-05-21T07:22:53;7.28;;;4.78;;
39098;SDS011;24844;52.380;7.018;2023-05-21T07:25:18;12.20;;;6.32;;
39098;SDS011;24844;52.380;7.018;2023-05-21T07:27:44;9.00;;;5.35;;
39098;SDS011;24844;52.380;7.018;2023-05-21T07:30:10;9.77;;;6.53;;
39098;SDS011;24844;52.380;7.018;2023-05-21T07:32:36;7.95;;;6.00;;
39098;SDS011;24844;52.380;7.018;2023-05-21T07:35:02;10.98;;;5.53;;
39098;SDS011;24844;52.380;7.018;2023-05-21T07:37:28;11.43;;;5.47;;
39098;SDS011;24844;52.380;7.018;2023-05-21T07:39:55;7.97;;;5.40;;
39098;SDS011;24844;52.380;7.018;2023-05-21T07:42:22;6.80;;;5.15;;
39098;SDS011;24844;52.380;7.018;2023-05-21T07:44:48;8.93;;;5.72;;
39098;SDS011;24844;52.380;7.018;2023-05-21T07:47:13;6.85;;;5.60;;
39098;SDS011;24844;52.380;7.018;2023-05-21T07:49:39;8.07;;;5.20;;
39098;SDS011;24844;52.380;7.018;2023-05-21T07:52:05;7.47;;;4.50;;
39098;SDS011;24844;52.380;7.018;2023-05-21T07:54:31;9.43;;;5.38;;
39098;SDS011;24844;52.380;7.018;2023-05-21T07:56:56;9.10;;;5.60;;
39098;SDS011;24844;52.380;7.018;2023-05-21T07:59:22;8.23;;;4.80;;
39098;SDS011;24844;52.380;7.018;2023-05-21T08:01:48;10.00;;;5.85;;
39098;SDS011;24844;52.380;7.018;2023-05-21T08:04:14;8.98;;;5.65;;
39098;SDS011;24844;52.380;7.018;2023-05-21T08:06:39;11.45;;;6.40;;
39098;SDS011;24844;52.380;7.018;2023-05-21T08:09:05;8.07;;;5.68;;
39098;SDS011;24844;52.380;7.018;2023-05-21T08:11:31;12.15;;;5.13;;
39098;SDS011;24844;52.380;7.018;2023-05-21T08:13:57;10.52;;;6.47;;
39098;SDS011;24844;52.380;7.018;2023-05-21T08:16:22;9.52;;;6.78;;
39098;SDS011;24844;52.380;7.018;2023-05-21T08:18:48;14.75;;;5.90;;
39098;SDS011;24844;52.380;7.018;2023-05-21T08:21:14;9.95;;;5.82;;
39098;SDS011;24844;52.380;7.018;2023-05-21T08:23:41;11.27;;;5.50;;
39098;SDS011;24844;52.380;7.018;2023-05-21T08:26:06;9.07;;;6.60;;
39098;SDS011;24844;52.380;7.018;2023-05-21T08:28:32;9.50;;;6.43;;
39098;SDS011;24844;52.380;7.018;2023-05-21T08:30:59;8.93;;;6.28;;
39098;SDS011;24844;52.380;7.018;2023-05-21T08:33:25;10.95;;;6.60;;
39098;SDS011;24844;52.380;7.018;2023-05-21T08:35:51;8.75;;;6.18;;
39098;SDS011;24844;52.380;7.018;2023-05-21T08:38:17;9.13;;;6.43;;
39098;SDS011;24844;52.380;7.018;2023-05-21T08:40:44;9.20;;;6.88;;
39098;SDS011;24844;52.380;7.018;2023-05-21T08:43:15;12.35;;;7.28;;
39098;SDS011;24844;52.380;7.018;2023-05-21T08:45:41;9.50;;;7.10;;
39098;SDS011;24844;52.380;7.018;2023-05-21T08:48:09;11.90;;;6.88;;
39098;SDS011;24844;52.380;7.018;2023-05-21T08:50:36;9.85;;;6.85;;
39098;SDS011;24844;52.380;7.018;2023-05-21T08:53:01;8.32;;;6.22;;
39098;SDS011;24844;52.380;7.018;2023-05-21T08:55:27;9.10;;;6.97;;
39098;SDS011;24844;52.380;7.018;2023-05-21T08:57:55;13.50;;;7.88;;
39098;SDS011;24844;52.380;7.018;2023-05-21T09:00:20;10.32;;;7.65;;
39098;SDS011;24844;52.380;7.018;2023-05-21T09:02:46;12.30;;;8.10;;
39098;SDS011;24844;52.380;7.018;2023-05-21T09:05:13;10.77;;;7.00;;
39098;SDS011;24844;52.380;7.018;2023-05-21T09:07:47;11.63;;;8.20;;
39098;SDS011;24844;52.380;7.018;2023-05-21T09:10:35;10.73;;;6.57;;
39098;SDS011;24844;52.380;7.018;2023-05-21T09:13:03;10.75;;;7.78;;
39098;SDS011;24844;52.380;7.018;2023-05-21T09:15:29;9.75;;;7.75;;
39098;SDS011;24844;52.380;7.018;2023-05-21T09:17:55;10.05;;;7.07;;
39098;SDS011;24844;52.380;7.018;2023-05-21T09:20:24;9.90;;;6.68;;
39098;SDS011;24844;52.380;7.018;2023-05-21T09:22:51;9.85;;;7.40;;
39098;SDS011;24844;52.380;7.018;2023-05-21T09:27:47;12.68;;;8.05;;
39098;SDS011;24844;52.380;7.018;2023-05-21T09:30:14;12.85;;;7.70;;
39098;SDS011;24844;52.380;7.018;2023-05-21T09:32:41;13.77;;;7.88;;
39098;SDS011;24844;52.380;7.018;2023-05-21T09:35:11;11.30;;;8.05;;
39098;SDS011;24844;52.380;7.018;2023-05-21T09:37:38;10.25;;;7.55;;
39098;SDS011;24844;52.380;7.018;2023-05-21T09:42:47;8.45;;;7.07;;
39098;SDS011;24844;52.380;7.018;2023-05-21T09:45:21;10.38;;;7.13;;
39098;SDS011;24844;52.380;7.018;2023-05-21T09:47:48;11.18;;;8.20;;
39098;SDS011;24844;52.380;7.018;2023-05-21T09:50:24;13.55;;;9.10;;
39098;SDS011;24844;52.380;7.018;2023-05-21T09:52:52;12.75;;;9.40;;
39098;SDS011;24844;52.380;7.018;2023-05-21T09:55:22;10.40;;;6.63;;
39098;SDS011;24844;52.380;7.018;2023-05-21T09:57:50;14.38;;;9.32;;
39098;SDS011;24844;52.380;7.018;2023-05-21T10:00:23;12.80;;;6.80;;
39098;SDS011;24844;52.380;7.018;2023-05-21T10:02:54;9.80;;;7.60;;
39098;SDS011;24844;52.380;7.018;2023-05-21T10:05:23;9.90;;;7.65;;
39098;SDS011;24844;52.380;7.018;2023-05-21T10:08:00;10.05;;;8.60;;
39098;SDS011;24844;52.380;7.018;2023-05-21T10:10:27;11.65;;;9.80;;
39098;SDS011;24844;52.380;7.018;2023-05-21T10:13:00;11.32;;;9.07;;
39098;SDS011;24844;52.380;7.018;2023-05-21T10:15:32;12.63;;;7.75;;
39098;SDS011;24844;52.380;7.018;2023-05-21T10:18:02;12.27;;;10.10;;
39098;SDS011;24844;52.380;7.018;2023-05-21T10:20:28;12.57;;;9.45;;
39098;SDS011;24844;52.380;7.018;2023-05-21T10:22:54;14.43;;;10.80;;
39098;SDS011;24844;52.380;7.018;2023-05-21T10:25:22;15.77;;;11.03;;
39098;SDS011;24844;52.380;7.018;2023-05-21T10:27:48;17.27;;;10.80;;
39098;SDS011;24844;52.380;7.018;2023-05-21T10:30:14;11.85;;;8.70;;
39098;SDS011;24844;52.380;7.018;2023-05-21T10:32:42;14.18;;;9.20;;
39098;SDS011;24844;52.380;7.018;2023-05-21T10:35:08;13.85;;;10.70;;
39098;SDS011;24844;52.380;7.018;2023-05-21T10:37:34;10.38;;;8.75;;
39098;SDS011;24844;52.380;7.018;2023-05-21T10:40:00;11.10;;;9.10;;
39098;SDS011;24844;52.380;7.018;2023-05-21T10:47:25;13.55;;;10.10;;
39098;SDS011;24844;52.380;7.018;2023-05-21T11:01:17;11.15;;;8.60;;
39098;SDS011;24844;52.380;7.018;2023-05-21T11:03:43;15.18;;;11.95;;
39098;SDS011;24844;52.380;7.018;2023-05-21T11:06:10;14.38;;;11.55;;
39098;SDS011;24844;52.380;7.018;2023-05-21T11:08:49;17.92;;;12.50;;
39098;SDS011;24844;52.380;7.018;2023-05-21T11:14:31;14.98;;;11.75;;
39098;SDS011;24844;52.380;7.018;2023-05-21T11:16:59;13.45;;;11.45;;
39098;SDS011;24844;52.380;7.018;2023-05-21T11:19:33;15.13;;;12.52;;
39098;SDS011;24844;52.380;7.018;2023-05-21T11:24:48;14.07;;;12.32;;
39098;SDS011;24844;52.380;7.018;2023-05-21T11:27:33;17.75;;;12.30;;
39098;SDS011;24844;52.380;7.018;2023-05-21T11:30:04;17.35;;;11.85;;
39098;SDS011;24844;52.380;7.018;2023-05-21T11:32:39;16.73;;;12.57;;
39098;SDS011;24844;52.380;7.018;2023-05-21T11:35:35;18.25;;;13.32;;
39098;SDS011;24844;52.380;7.018;2023-05-21T11:38:03;20.73;;;14.65;;
39098;SDS011;24844;52.380;7.018;2023-05-21T11:40:33;20.83;;;14.18;;
39098;SDS011;24844;52.380;7.018;2023-05-21T11:42:59;21.88;;;14.30;;
39098;SDS011;24844;52.380;7.018;2023-05-21T11:45:28;17.05;;;13.43;;
39098;SDS011;24844;52.380;7.018;2023-05-21T11:47:55;22.30;;;13.45;;
39098;SDS011;24844;52.380;7.018;2023-05-21T11:50:21;18.85;;;13.77;;
39098;SDS011;24844;52.380;7.018;2023-05-21T11:52:47;17.88;;;12.32;;
39098;SDS011;24844;52.380;7.018;2023-05-21T11:55:13;16.38;;;11.93;;
39098;SDS011;24844;52.380;7.018;2023-05-21T11:57:42;17.17;;;13.60;;
39098;SDS011;24844;52.380;7.018;2023-05-21T12:00:12;17.23;;;12.68;;
39098;SDS011;24844;52.380;7.018;2023-05-21T12:02:51;14.18;;;12.25;;
39098;SDS011;24844;52.380;7.018;2023-05-21T12:05:17;14.48;;;11.68;;
39098;SDS011;24844;52.380;7.018;2023-05-21T12:07:45;13.52;;;10.70;;
39098;SDS011;24844;52.380;7.018;2023-05-21T12:10:12;20.80;;;13.52;;
39098;SDS011;24844;52.380;7.018;2023-05-21T12:12:38;15.50;;;12.88;;
39098;SDS011;24844;52.380;7.018;2023-05-21T12:15:04;16.50;;;13.05;;
39098;SDS011;24844;52.380;7.018;2023-05-21T12:17:31;17.70;;;12.65;;
39098;SDS011;24844;52.380;7.018;2023-05-21T12:19:56;17.88;;;12.10;;
39098;SDS011;24844;52.380;7.018;2023-05-21T12:22:23;15.63;;;11.75;;
39098;SDS011;24844;52.380;7.018;2023-05-21T12:24:49;17.65;;;11.18;;
39098;SDS011;24844;52.380;7.018;2023-05-21T12:27:15;19.08;;;13.05;;
39098;SDS011;24844;52.380;7.018;2023-05-21T12:29:43;14.13;;;11.13;;
39098;SDS011;24844;52.380;7.018;2023-05-21T12:32:11;16.08;;;12.10;;
39098;SDS011;24844;52.380;7.018;2023-05-21T12:39:46;28.08;;;20.85;;
39098;SDS011;24844;52.380;7.018;2023-05-21T12:42:29;15.55;;;12.38;;
39098;SDS011;24844;52.380;7.018;2023-05-21T12:44:59;17.90;;;13.57;;
39098;SDS011;24844;52.380;7.018;2023-05-21T12:47:31;19.95;;;14.55;;
39098;SDS011;24844;52.380;7.018;2023-05-21T12:49:59;14.35;;;10.90;;
39098;SDS011;24844;52.380;7.018;2023-05-21T12:52:25;13.35;;;10.80;;
39098;SDS011;24844;52.380;7.018;2023-05-21T12:54:53;16.75;;;12.80;;
39098;SDS011;24844;52.380;7.018;2023-05-21T12:57:21;17.30;;;13.10;;
39098;SDS011;24844;52.380;7.018;2023-05-21T13:00:00;13.00;;;9.38;;
39098;SDS011;24844;52.380;7.018;2023-05-21T13:02:30;15.35;;;13.05;;
39098;SDS011;24844;52.380;7.018;2023-05-21T13:05:03;15.43;;;11.20;;
39098;SDS011;24844;52.380;7.018;2023-05-21T13:07:30;19.33;;;13.13;;
39098;SDS011;24844;52.380;7.018;2023-05-21T13:09:57;18.58;;;12.05;;
39098;SDS011;24844;52.380;7.018;2023-05-21T13:12:24;15.80;;;11.95;;
39098;SDS011;24844;52.380;7.018;2023-05-21T13:14:55;14.98;;;11.55;;
39098;SDS011;24844;52.380;7.018;2023-05-21T13:17:22;12.85;;;9.43;;
39098;SDS011;24844;52.380;7.018;2023-05-21T13:22:38;13.52;;;11.13;;
39098;SDS011;24844;52.380;7.018;2023-05-21T13:25:06;19.20;;;12.30;;
39098;SDS011;24844;52.380;7.018;2023-05-21T13:27:33;14.80;;;12.38;;
39098;SDS011;24844;52.380;7.018;2023-05-21T13:29:59;14.27;;;11.73;;
39098;SDS011;24844;52.380;7.018;2023-05-21T13:32:25;18.30;;;13.48;;
39098;SDS011;24844;52.380;7.018;2023-05-21T13:34:50;18.98;;;13.38;;
39098;SDS011;24844;52.380;7.018;2023-05-21T13:37:16;15.05;;;12.38;;
39098;SDS011;24844;52.380;7.018;2023-05-21T13:39:41;17.05;;;12.95;;
39098;SDS011;24844;52.380;7.018;2023-05-21T13:42:07;15.65;;;11.07;;
39098;SDS011;24844;52.380;7.018;2023-05-21T13:44:32;18.42;;;12.85;;
39098;SDS011;24844;52.380;7.018;2023-05-21T13:47:03;13.82;;;10.88;;
39098;SDS011;24844;52.380;7.018;2023-05-21T13:49:29;13.00;;;9.25;;
39098;SDS011;24844;52.380;7.018;2023-05-21T13:51:55;13.45;;;10.13;;
39098;SDS011;24844;52.380;7.018;2023-05-21T13:54:22;13.18;;;9.80;;
39098;SDS011;24844;52.380;7.018;2023-05-21T13:56:48;13.30;;;9.57;;
39098;SDS011;24844;52.380;7.018;2023-05-21T13:59:14;12.90;;;10.52;;
39098;SDS011;24844;52.380;7.018;2023-05-21T14:01:39;13.98;;;10.15;;
39098;SDS011;24844;52.380;7.018;2023-05-21T14:04:05;12.30;;;10.07;;
39098;SDS011;24844;52.380;7.018;2023-05-21T14:06:31;19.15;;;10.07;;
39098;SDS011;24844;52.380;7.018;2023-05-21T14:08:59;12.88;;;10.50;;
39098;SDS011;24844;52.380;7.018;2023-05-21T14:11:26;15.25;;;10.38;;
39098;SDS011;24844;52.380;7.018;2023-05-21T14:13:52;19.48;;;10.05;;
39098;SDS011;24844;52.380;7.018;2023-05-21T14:16:18;14.18;;;11.07;;
39098;SDS011;24844;52.380;7.018;2023-05-21T14:18:46;13.95;;;10.50;;
39098;SDS011;24844;52.380;7.018;2023-05-21T14:21:12;12.85;;;9.63;;
39098;SDS011;24844;52.380;7.018;2023-05-21T14:23:38;16.65;;;9.70;;
39098;SDS011;24844;52.380;7.018;2023-05-21T14:26:03;11.07;;;9.82;;
39098;SDS011;24844;52.380;7.018;2023-05-21T14:28:29;14.15;;;10.25;;
39098;SDS011;24844;52.380;7.018;2023-05-21T14:30:54;16.63;;;10.45;;
39098;SDS011;24844;52.380;7.018;2023-05-21T14:33:20;12.18;;;10.02;;
39098;SDS011;24844;52.380;7.018;2023-05-21T14:35:46;11.80;;;9.70;;
39098;SDS011;24844;52.380;7.018;2023-05-21T14:38:12;11.55;;;8.95;;
39098;SDS011;24844;52.380;7.018;2023-05-21T14:40:38;10.43;;;8.68;;
39098;SDS011;24844;52.380;7.018;2023-05-21T14:43:03;10.18;;;9.00;;
39098;SDS011;24844;52.380;7.018;2023-05-21T14:45:30;10.98;;;9.18;;
39098;SDS011;24844;52.380;7.018;2023-05-21T14:47:59;13.63;;;8.55;;
39098;SDS011;24844;52.380;7.018;2023-05-21T14:50:38;11.13;;;9.90;;
39098;SDS011;24844;52.380;7.018;2023-05-21T14:53:09;14.43;;;10.68;;
39098;SDS011;24844;52.380;7.018;2023-05-21T14:55:36;14.98;;;9.90;;
39098;SDS011;24844;52.380;7.018;2023-05-21T14:58:02;13.10;;;9.65;;
39098;SDS011;24844;52.380;7.018;2023-05-21T15:00:29;10.00;;;8.65;;
39098;SDS011;24844;52.380;7.018;2023-05-21T15:02:55;12.35;;;9.00;;
39098;SDS011;24844;52.380;7.018;2023-05-21T15:05:21;15.43;;;9.52;;
39098;SDS011;24844;52.380;7.018;2023-05-21T15:07:46;13.65;;;9.27;;
39098;SDS011;24844;52.380;7.018;2023-05-21T15:10:12;13.15;;;9.90;;
39098;SDS011;24844;52.380;7.018;2023-05-21T15:12:38;11.60;;;9.18;;
39098;SDS011;24844;52.380;7.018;2023-05-21T15:15:04;10.20;;;9.20;;